Time;durP1;ratioP1;P1;durP2;ratioP2;P2;SDS_P1;SDS_P2;PMS_P1;PMS_P2;Temp;Humidity;BMP_temperature;BMP_pressure;BME280_temperature;BME280_humidity;BME280_pressure;Samples;Min_cycle;Max_cycle;Signal;HPM_P1;HPM_P2
2022/05/15 00:00:59;;;;;;;28.23;19.10;;;11.40;99.90;;;;;;4972116;28;20415;-85
2022/05/15 00:03:26;;;;;;;25.08;17.33;;;11.30;99.90;;;;;;4970596;28;20031;-84
2022/05/15 00:05:55;;;;;;;26.83;18.00;;;11.20;99.90;;;;;;4946419;28;20019;-86
2022/05/15 00:08:21;;;;;;;29.90;18.83;;;11.30;99.90;;;;;;4946491;28;20112;-85
2022/05/15 00:10:47;;;;;;;28.33;18.63;;;11.30;99.90;;;;;;4962272;28;20027;-86
2022/05/15 00:13:14;;;;;;;26.67;17.42;;;11.30;99.90;;;;;;4959639;28;20050;-86
2022/05/15 00:15:41;;;;;;;27.17;18.00;;;11.30;99.90;;;;;;4962835;28;20570;-87
2022/05/15 00:18:07;;;;;;;26.55;17.58;;;11.30;99.90;;;;;;4960010;28;20467;-84
2022/05/15 00:20:34;;;;;;;25.23;17.40;;;11.30;99.90;;;;;;4960315;28;20062;-84
2022/05/15 00:23:00;;;;;;;25.98;16.40;;;11.20;99.90;;;;;;4959886;28;20023;-83
2022/05/15 00:25:26;;;;;;;27.70;16.10;;;11.20;99.90;;;;;;4965612;28;20807;-84
2022/05/15 00:27:51;;;;;;;28.02;19.60;;;11.10;99.90;;;;;;4960636;28;20428;-84
2022/05/15 00:30:20;;;;;;;32.17;21.77;;;11.20;99.90;;;;;;4962590;28;20023;-85
2022/05/15 00:32:47;;;;;;;36.42;21.95;;;11.20;99.90;;;;;;4964773;28;20027;-85
2022/05/15 00:35:13;;;;;;;32.55;20.58;;;11.10;99.90;;;;;;4957136;28;20061;-83
2022/05/15 00:37:39;;;;;;;30.88;20.73;;;11.10;99.90;;;;;;4948880;28;20178;-84
2022/05/15 00:40:08;;;;;;;33.85;22.45;;;11.10;99.90;;;;;;4960333;28;20117;-84
2022/05/15 00:42:35;;;;;;;34.03;20.33;;;11.10;99.90;;;;;;4957890;28;20039;-85
2022/05/15 00:45:02;;;;;;;32.78;19.67;;;11.10;99.90;;;;;;4961397;28;20026;-85
2022/05/15 00:47:28;;;;;;;29.55;19.95;;;11.10;99.90;;;;;;4962499;28;20031;-85
2022/05/15 00:49:54;;;;;;;31.95;19.20;;;11.00;99.90;;;;;;4959621;28;20030;-83
2022/05/15 00:52:26;;;;;;;32.25;21.00;;;10.90;99.90;;;;;;4944380;28;20022;-85
2022/05/15 00:55:14;;;;;;;32.30;19.67;;;10.90;99.90;;;;;;4962931;28;20102;-82
2022/05/15 00:57:50;;;;;;;27.10;18.80;;;10.80;99.90;;;;;;4940979;29;20053;-86
2022/05/15 01:00:26;;;;;;;35.47;20.02;;;10.70;99.90;;;;;;4952022;29;20030;-84
2022/05/15 01:03:00;;;;;;;30.10;20.23;;;10.70;99.90;;;;;;4934078;29;20031;-85
2022/05/15 01:05:26;;;;;;;36.17;20.92;;;10.60;99.90;;;;;;4934687;29;20077;-86
2022/05/15 01:07:52;;;;;;;28.25;20.10;;;10.60;99.90;;;;;;4934925;29;20035;-85
2022/05/15 01:10:18;;;;;;;36.53;20.27;;;10.60;99.90;;;;;;4934439;29;20066;-85
2022/05/15 01:12:44;;;;;;;32.08;20.80;;;10.60;99.90;;;;;;4950117;29;20055;-85
2022/05/15 01:15:19;;;;;;;31.85;19.15;;;10.60;99.90;;;;;;4934487;29;20031;-85
2022/05/15 01:17:45;;;;;;;30.95;19.42;;;10.60;99.90;;;;;;4951758;29;20031;-87
2022/05/15 01:20:14;;;;;;;34.22;21.30;;;10.60;99.90;;;;;;4952171;29;20748;-86
2022/05/15 01:22:40;;;;;;;29.88;20.02;;;10.60;99.90;;;;;;4933943;29;20098;-86
2022/05/15 01:25:16;;;;;;;31.63;19.27;;;10.60;99.90;;;;;;4934623;29;20028;-85
2022/05/15 01:27:47;;;;;;;36.53;18.63;;;10.70;99.90;;;;;;4935220;29;20027;-86
2022/05/15 01:30:13;;;;;;;29.58;20.50;;;10.70;99.90;;;;;;4934472;29;20031;-85
2022/05/15 01:32:39;;;;;;;30.55;18.55;;;10.70;99.90;;;;;;4934579;29;20029;-84
2022/05/15 01:35:05;;;;;;;28.90;18.27;;;10.80;99.90;;;;;;4950688;29;20023;-85
2022/05/15 01:37:31;;;;;;;29.67;19.23;;;10.80;99.90;;;;;;4934106;29;20071;-86
2022/05/15 01:39:57;;;;;;;28.55;18.85;;;10.80;99.90;;;;;;4934348;29;20027;-87
2022/05/15 01:42:22;;;;;;;31.85;20.05;;;10.70;99.90;;;;;;4949597;29;20065;-86
2022/05/15 01:44:48;;;;;;;30.08;19.58;;;10.70;99.90;;;;;;4951910;29;20035;-86
2022/05/15 01:47:15;;;;;;;26.27;18.52;;;10.60;99.90;;;;;;4951021;29;20027;-86
2022/05/15 01:49:41;;;;;;;34.63;19.05;;;10.60;99.90;;;;;;4934157;29;20023;-86
2022/05/15 01:52:08;;;;;;;32.60;20.05;;;10.50;99.90;;;;;;4950403;29;20491;-86
2022/05/15 01:54:33;;;;;;;28.83;18.38;;;10.50;99.90;;;;;;4949868;28;20472;-84
2022/05/15 01:56:59;;;;;;;37.13;19.67;;;10.40;99.90;;;;;;4954879;28;20039;-85
2022/05/15 01:59:25;;;;;;;32.50;18.70;;;10.40;99.90;;;;;;4939169;29;20105;-85
2022/05/15 02:01:51;;;;;;;29.92;19.10;;;10.30;99.90;;;;;;4954339;29;20039;-83
2022/05/15 02:04:16;;;;;;;32.88;21.20;;;10.40;99.90;;;;;;4953507;29;20042;-86
2022/05/15 02:06:42;;;;;;;35.08;21.85;;;10.40;99.90;;;;;;4957280;29;20078;-83
2022/05/15 02:09:09;;;;;;;31.90;20.30;;;10.40;99.90;;;;;;4938156;29;20494;-84
2022/05/15 02:11:37;;;;;;;32.67;20.47;;;10.40;99.90;;;;;;4938070;29;20074;-86
2022/05/15 02:14:03;;;;;;;31.30;20.25;;;10.30;99.90;;;;;;4937267;29;20455;-85
2022/05/15 02:16:31;;;;;;;27.08;20.02;;;10.40;99.90;;;;;;4937618;29;20514;-84
2022/05/15 02:18:57;;;;;;;30.23;19.75;;;10.50;99.90;;;;;;4954414;29;20035;-85
2022/05/15 02:21:23;;;;;;;31.15;21.08;;;10.50;99.90;;;;;;4937369;29;20396;-84
2022/05/15 02:23:48;;;;;;;30.00;21.95;;;10.60;99.90;;;;;;4936980;29;20027;-84
2022/05/15 02:26:14;;;;;;;36.38;22.33;;;10.60;99.90;;;;;;4937315;29;20362;-83
2022/05/15 02:28:41;;;;;;;30.83;20.48;;;10.60;99.90;;;;;;4954107;29;20031;-84
2022/05/15 02:31:06;;;;;;;30.52;19.60;;;10.70;99.90;;;;;;4937337;29;20431;-84
2022/05/15 02:33:33;;;;;;;28.27;18.65;;;10.70;99.90;;;;;;4936860;29;20035;-84
2022/05/15 02:35:59;;;;;;;28.83;20.08;;;10.70;99.90;;;;;;4954369;29;20066;-86
2022/05/15 02:38:25;;;;;;;30.35;20.20;;;10.70;99.90;;;;;;4937064;29;20027;-84
2022/05/15 02:40:50;;;;;;;26.88;20.08;;;10.80;99.90;;;;;;4954293;29;20020;-84
2022/05/15 02:43:16;;;;;;;31.30;20.70;;;10.70;99.90;;;;;;4953543;29;20460;-84
2022/05/15 02:45:42;;;;;;;33.35;22.33;;;10.80;99.90;;;;;;4944435;23;20535;-53
2022/05/15 02:51:03;;;;;;;29.30;20.17;;;10.80;99.90;;;;;;4915449;29;20511;-52
2022/05/15 02:51:05;;;;;;;29.67;19.92;;;10.90;99.90;;;;;;4915987;29;20039;-51
2022/05/15 02:53:33;;;;;;;26.73;19.70;;;10.90;99.90;;;;;;4915992;29;20020;-52
2022/05/15 02:55:59;;;;;;;;;;;11.00;99.90;;;;;;4932731;29;20032;-53
2022/05/15 02:58:25;;;;;;;27.70;18.63;;;11.00;99.90;;;;;;4953742;29;19911;-51
2022/05/15 03:00:51;;;;;;;29.52;20.50;;;11.00;99.90;;;;;;4953777;29;20027;-52
2022/05/15 03:03:17;;;;;;;31.58;18.02;;;11.00;99.90;;;;;;4953198;29;20031;-53
2022/05/15 03:05:43;;;;;;;27.05;19.95;;;11.00;99.90;;;;;;4953965;29;20138;-52
2022/05/15 03:08:09;;;;;;;30.45;19.85;;;11.10;99.90;;;;;;4952981;28;20126;-53
2022/05/15 03:10:35;;;;;;;26.77;17.85;;;11.10;99.90;;;;;;4953818;29;20031;-51
2022/05/15 03:13:00;;;;;;;27.00;17.58;;;11.10;99.90;;;;;;4952731;29;20024;-52
2022/05/15 03:15:26;;;;;;;25.25;18.25;;;11.10;99.90;;;;;;4953851;29;20042;-52
2022/05/15 03:17:51;;;;;;;26.10;16.38;;;11.10;99.90;;;;;;4953425;29;20504;-52
2022/05/15 03:20:18;;;;;;;25.55;16.52;;;11.10;99.90;;;;;;4953496;29;20462;-53
2022/05/15 03:22:43;;;;;;;27.70;18.55;;;11.10;99.90;;;;;;4953205;29;20466;-51
2022/05/15 03:25:10;;;;;;;30.15;18.65;;;11.00;99.90;;;;;;4953568;29;20051;-52
2022/05/15 03:27:36;;;;;;;32.22;19.85;;;10.90;99.90;;;;;;4952957;29;20047;-51
2022/05/15 03:30:04;;;;;;;28.98;20.20;;;10.80;99.90;;;;;;4953260;29;20027;-53
2022/05/15 03:32:30;;;;;;;32.70;20.23;;;10.90;99.90;;;;;;4967880;28;20466;-52
2022/05/15 03:34:56;;;;;;;31.48;20.50;;;10.90;99.90;;;;;;4953711;29;20102;-52
2022/05/15 03:37:21;;;;;;;28.10;19.75;;;10.90;99.90;;;;;;4952991;29;20533;-51
2022/05/15 03:39:47;;;;;;;33.72;20.92;;;11.00;99.90;;;;;;4953028;29;20038;-52
2022/05/15 03:42:13;;;;;;;30.70;20.70;;;10.90;99.90;;;;;;4952923;29;20042;-53
2022/05/15 03:44:38;;;;;;;28.55;19.30;;;10.90;99.90;;;;;;4953361;29;20023;-53
2022/05/15 03:47:05;;;;;;;31.80;19.55;;;10.90;99.90;;;;;;4952962;29;20153;-51
2022/05/15 03:49:31;;;;;;;32.05;19.60;;;11.10;99.90;;;;;;4971962;28;20027;-53
2022/05/15 03:51:57;;;;;;;26.83;19.90;;;11.20;99.90;;;;;;4956883;28;20118;-52
2022/05/15 03:54:22;;;;;;;32.25;19.60;;;11.20;99.90;;;;;;4953097;29;20043;-52
2022/05/15 03:56:51;;;;;;;26.80;18.83;;;11.20;99.90;;;;;;4966522;28;20045;-52
2022/05/15 03:59:23;;;;;;;29.55;19.05;;;11.30;99.90;;;;;;4972104;28;20097;-52
2022/05/15 04:01:49;;;;;;;30.55;20.40;;;11.50;99.90;;;;;;4956977;28;20452;-51
2022/05/15 04:04:16;;;;;;;27.77;19.10;;;11.60;99.90;;;;;;4952738;29;20102;-51
2022/05/15 04:06:42;;;;;;;30.10;19.05;;;11.60;99.90;;;;;;4952794;29;20027;-51
2022/05/15 04:09:07;;;;;;;33.25;21.33;;;11.60;99.90;;;;;;4952617;29;20070;-52
2022/05/15 04:11:33;;;;;;;25.05;18.65;;;11.60;99.90;;;;;;4951950;29;20466;-52
2022/05/15 04:13:59;;;;;;;26.83;17.73;;;11.60;99.90;;;;;;4952604;29;20043;-52
2022/05/15 04:16:25;;;;;;;28.98;18.60;;;11.70;99.90;;;;;;4951366;29;20130;-53
2022/05/15 04:18:50;;;;;;;29.02;20.38;;;11.80;99.90;;;;;;4933543;29;20024;-51
2022/05/15 04:21:16;;;;;;;31.52;19.70;;;11.80;99.90;;;;;;4933447;29;20674;-52
2022/05/15 04:23:42;;;;;;;36.90;19.52;;;11.80;99.90;;;;;;4931308;29;20567;-52
2022/05/15 04:26:07;;;;;;;34.22;20.75;;;11.80;99.90;;;;;;4933342;29;20020;-53
2022/05/15 04:28:35;;;;;;;32.58;21.65;;;11.80;99.90;;;;;;4932987;29;20530;-51
2022/05/15 04:31:02;;;;;;;29.38;20.02;;;11.80;99.90;;;;;;4933206;29;20036;-52
2022/05/15 04:33:27;;;;;;;31.42;19.67;;;11.90;99.90;;;;;;4932649;29;20536;-52
2022/05/15 04:35:53;;;;;;;34.05;18.85;;;12.00;99.90;;;;;;4932784;29;20114;-53
2022/05/15 04:38:19;;;;;;;29.50;19.35;;;12.00;99.90;;;;;;4933106;29;20052;-52
2022/05/15 04:40:44;;;;;;;29.65;19.52;;;12.00;99.90;;;;;;4933003;29;20095;-53
2022/05/15 04:43:10;;;;;;;34.03;20.10;;;12.00;99.90;;;;;;4945234;29;20117;-53
2022/05/15 04:45:36;;;;;;;29.90;19.73;;;12.10;99.90;;;;;;4951846;29;20070;-53
2022/05/15 04:48:02;;;;;;;34.67;20.98;;;12.10;99.90;;;;;;4952158;29;20456;-53
2022/05/15 04:50:28;;;;;;;27.58;20.35;;;12.20;99.90;;;;;;4951986;29;20031;-53
2022/05/15 04:52:53;;;;;;;38.72;21.85;;;12.30;99.90;;;;;;4934338;29;20077;-52
2022/05/15 04:55:20;;;;;;;35.33;20.27;;;12.30;99.90;;;;;;4951435;29;20027;-51
2022/05/15 04:57:46;;;;;;;28.85;20.98;;;12.40;99.90;;;;;;4951398;29;20490;-52
2022/05/15 05:00:17;;;;;;;31.92;19.90;;;12.40;99.90;;;;;;4951247;29;20070;-52
2022/05/15 05:02:43;;;;;;;34.55;18.23;;;12.50;99.90;;;;;;4966302;28;20073;-52
2022/05/15 05:05:10;;;;;;;27.25;18.50;;;12.60;99.90;;;;;;4966229;28;20065;-52
2022/05/15 05:07:35;;;;;;;29.58;19.67;;;12.70;99.90;;;;;;4950895;29;20042;-52
2022/05/15 05:10:01;;;;;;;29.67;18.88;;;12.80;99.90;;;;;;4949464;29;20023;-53
2022/05/15 05:12:27;;;;;;;27.10;16.88;;;12.90;99.90;;;;;;4950812;29;20035;-53
2022/05/15 05:14:52;;;;;;;25.40;16.38;;;13.00;99.90;;;;;;4951746;29;20031;-52
2022/05/15 05:17:18;;;;;;;27.95;16.55;;;13.10;99.90;;;;;;4951673;29;20114;-52
2022/05/15 05:19:44;;;;;;;22.08;14.38;;;13.20;99.90;;;;;;4951369;29;20024;-51
2022/05/15 05:22:10;;;;;;;25.13;14.68;;;13.30;99.90;;;;;;4951026;29;20050;-51
2022/05/15 05:24:35;;;;;;;24.80;14.20;;;13.40;99.90;;;;;;4951034;29;20033;-53
2022/05/15 05:27:01;;;;;;;24.63;13.52;;;13.60;99.90;;;;;;4951899;29;20031;-52
2022/05/15 05:29:27;;;;;;;22.50;12.55;;;13.60;99.90;;;;;;4951798;28;20031;-51
2022/05/15 05:31:53;;;;;;;22.48;11.50;;;13.70;99.90;;;;;;4954771;29;20039;-53
2022/05/15 05:34:18;;;;;;;20.20;10.77;;;13.80;99.90;;;;;;4954959;29;20078;-53
2022/05/15 05:36:45;;;;;;;25.15;12.27;;;13.80;99.90;;;;;;4953479;29;20099;-52
2022/05/15 05:39:10;;;;;;;18.98;11.48;;;13.80;99.90;;;;;;4953577;29;20474;-51
2022/05/15 05:41:37;;;;;;;27.08;11.75;;;13.90;99.90;;;;;;4953508;29;20034;-52
2022/05/15 05:44:03;;;;;;;28.70;12.55;;;14.00;99.90;;;;;;4953393;29;20086;-52
2022/05/15 05:46:29;;;;;;;19.98;10.35;;;14.00;99.90;;;;;;4952733;29;20051;-51
2022/05/15 05:48:56;;;;;;;18.45;10.55;;;14.00;99.90;;;;;;4952621;29;20033;-53
2022/05/15 05:51:21;;;;;;;24.23;10.93;;;14.10;99.90;;;;;;4954188;29;20033;-52
2022/05/15 05:53:48;;;;;;;20.67;9.73;;;14.20;99.90;;;;;;4955122;29;20334;-52
2022/05/15 05:56:14;;;;;;;28.30;10.25;;;14.30;99.90;;;;;;4954855;29;20039;-52
2022/05/15 05:58:40;;;;;;;21.65;9.18;;;14.30;99.90;;;;;;4955061;29;20035;-51
2022/05/15 06:01:06;;;;;;;16.05;8.93;;;14.40;99.90;;;;;;4956570;28;20038;-51
2022/05/15 06:06:17;;;;;;;19.90;7.90;;;14.40;99.90;;;;;;4974409;28;20081;-53
2022/05/15 06:08:43;;;;;;;18.75;8.30;;;14.50;99.90;;;;;;4973963;28;20541;-53
2022/05/15 06:11:10;;;;;;;18.70;8.60;;;14.60;99.90;;;;;;4974151;28;20052;-53
2022/05/15 06:13:36;;;;;;;18.77;7.50;;;14.70;99.90;;;;;;4973957;28;20105;-52
2022/05/15 06:16:03;;;;;;;16.42;8.05;;;14.60;99.90;;;;;;4974132;28;20138;-52
2022/05/15 06:18:28;;;;;;;14.67;6.90;;;14.70;99.90;;;;;;4974021;28;20069;-52
2022/05/15 06:20:54;;;;;;;15.65;6.60;;;14.70;99.90;;;;;;4956451;28;20496;-52
2022/05/15 06:23:20;;;;;;;15.55;6.50;;;14.70;99.90;;;;;;4973918;28;20023;-51
2022/05/15 06:25:46;;;;;;;11.95;4.70;;;14.90;99.90;;;;;;4956460;28;20058;-51
2022/05/15 06:28:11;;;;;;;17.20;5.20;;;14.90;99.90;;;;;;4973714;28;20105;-53
2022/05/15 06:30:37;;;;;;;12.52;4.30;;;15.00;99.90;;;;;;4973721;28;20034;-52
2022/05/15 06:33:06;;;;;;;14.10;5.10;;;15.10;99.90;;;;;;4973659;28;20035;-52
2022/05/15 06:35:31;;;;;;;13.60;5.22;;;15.30;99.90;;;;;;4973625;28;20035;-53
2022/05/15 06:38:04;;;;;;;15.18;4.82;;;15.40;99.90;;;;;;4973749;28;20387;-53
2022/05/15 06:40:29;;;;;;;12.48;4.47;;;15.50;99.90;;;;;;4973831;28;20093;-52
2022/05/15 06:42:57;;;;;;;12.48;4.93;;;15.60;99.90;;;;;;4972685;28;20031;-52
2022/05/15 06:45:24;;;;;;;15.57;4.85;;;15.60;99.90;;;;;;4973087;28;20046;-52
2022/05/15 06:47:50;;;;;;;10.82;4.80;;;15.70;99.90;;;;;;4973424;28;20042;-52
2022/05/15 06:50:16;;;;;;;14.18;5.05;;;15.80;99.90;;;;;;4972019;28;20139;-53
2022/05/15 06:52:42;;;;;;;16.55;5.05;;;15.80;99.90;;;;;;4973329;28;20104;-52
2022/05/15 06:55:17;;;;;;;14.27;3.92;;;15.80;99.90;;;;;;4973546;28;20019;-54
2022/05/15 06:57:44;;;;;;;12.30;4.13;;;15.90;99.90;;;;;;4973397;28;20042;-52
2022/05/15 07:00:15;;;;;;;13.07;4.43;;;15.90;99.90;;;;;;4973165;28;20038;-51
2022/05/15 07:02:41;;;;;;;13.30;3.97;;;15.90;99.90;;;;;;4972863;28;20657;-53
2022/05/15 07:05:09;;;;;;;11.90;4.32;;;16.00;99.90;;;;;;4973410;28;20034;-52
2022/05/15 07:07:36;;;;;;;12.60;3.75;;;16.20;99.90;;;;;;4973045;28;20027;-53
2022/05/15 07:10:02;;;;;;;9.73;4.17;;;16.20;99.90;;;;;;4973345;28;20167;-54
2022/05/15 07:12:27;;;;;;;13.85;4.40;;;16.30;99.90;;;;;;4972381;28;20466;-52
2022/05/15 07:14:53;;;;;;;14.07;4.50;;;16.30;99.90;;;;;;4973120;28;20093;-52
2022/05/15 07:17:19;;;;;;;9.75;4.22;;;16.40;99.90;;;;;;4972470;28;20134;-53
2022/05/15 07:19:44;;;;;;;9.98;3.28;;;16.60;99.90;;;;;;4973342;28;20031;-52
2022/05/15 07:22:10;;;;;;;15.80;4.95;;;16.50;99.90;;;;;;4972511;28;20045;-49
2022/05/15 07:24:40;;;;;;;12.65;4.40;;;16.60;99.90;;;;;;4972671;28;20045;-50
2022/05/15 07:27:07;;;;;;;12.13;4.00;;;16.70;99.90;;;;;;4972506;28;20110;-53
2022/05/15 07:29:36;;;;;;;10.07;4.13;;;16.80;99.90;;;;;;4972506;28;20601;-50
2022/05/15 07:32:03;;;;;;;13.77;4.38;;;16.80;99.90;;;;;;4972242;28;20058;-52
2022/05/15 07:34:28;;;;;;;13.50;4.47;;;16.90;99.90;;;;;;4972698;28;20074;-50
2022/05/15 07:36:54;;;;;;;16.23;4.80;;;16.90;99.90;;;;;;4972357;28;20080;-50
2022/05/15 07:39:20;;;;;;;18.17;4.88;;;16.90;99.90;;;;;;4972527;28;20373;-51
2022/05/15 07:41:47;;;;;;;7.97;3.53;;;17.00;99.90;;;;;;4972062;28;20031;-51
2022/05/15 07:44:13;;;;;;;14.45;4.60;;;17.10;99.90;;;;;;4972500;28;20027;-51
2022/05/15 07:46:40;;;;;;;15.00;5.03;;;17.20;99.90;;;;;;4972472;28;20043;-50
2022/05/15 07:49:06;;;;;;;10.55;3.95;;;17.10;99.90;;;;;;4972126;28;20026;-52
2022/05/15 07:51:32;;;;;;;16.08;4.32;;;17.10;99.90;;;;;;4972352;28;20057;-51
2022/05/15 07:53:59;;;;;;;19.23;4.18;;;17.30;99.90;;;;;;4971913;28;20122;-51
2022/05/15 07:56:25;;;;;;;11.52;3.70;;;17.30;99.90;;;;;;4972168;28;20500;-50
2022/05/15 07:58:51;;;;;;;20.00;4.43;;;17.30;99.90;;;;;;4972277;28;20041;-51
2022/05/15 08:01:18;;;;;;;19.17;3.85;;;17.30;99.90;;;;;;4972019;28;20041;-52
2022/05/15 08:03:43;;;;;;;11.13;3.40;;;17.50;99.90;;;;;;4971610;28;20033;-50
2022/05/15 08:08:57;;;;;;;15.30;3.47;;;17.50;99.90;;;;;;4971785;28;20037;-50
2022/05/15 08:11:26;;;;;;;12.52;3.28;;;17.40;99.90;;;;;;4971995;28;20517;-50
2022/05/15 08:13:52;;;;;;;11.05;3.63;;;17.50;99.90;;;;;;4971228;28;20058;-50
2022/05/15 08:16:18;;;;;;;18.70;3.97;;;17.60;99.90;;;;;;4971938;28;20386;-50
2022/05/15 08:24:14;;;;;;;11.38;3.53;;;17.90;99.90;;;;;;4951803;29;20090;-49
2022/05/15 08:26:40;;;;;;;10.73;3.55;;;17.90;99.90;;;;;;4952143;28;20480;-50
2022/05/15 08:29:06;;;;;;;11.52;4.32;;;18.00;99.90;;;;;;4952172;29;20085;-51
2022/05/15 08:31:31;;;;;;;12.25;3.58;;;18.20;99.90;;;;;;4952369;29;20561;-50
2022/05/15 08:33:57;;;;;;;11.35;3.20;;;18.30;99.90;;;;;;4951520;29;20066;-51
2022/05/15 08:36:23;;;;;;;10.75;3.53;;;18.30;99.90;;;;;;4951963;29;20114;-51
2022/05/15 08:38:49;;;;;;;13.23;3.90;;;18.20;99.90;;;;;;4952000;29;20035;-52
2022/05/15 08:41:30;;;;;;;12.30;3.28;;;18.40;99.90;;;;;;4951987;29;20034;-52
2022/05/15 08:44:06;;;;;;;12.20;3.10;;;18.50;99.90;;;;;;4951408;28;20490;-51
2022/05/15 08:46:35;;;;;;;10.35;3.03;;;18.70;99.90;;;;;;4951350;28;20834;-51
2022/05/15 08:49:31;;;;;;;11.50;3.53;;;18.70;99.90;;;;;;4951598;29;20045;-51
2022/05/15 08:52:04;;;;;;;10.90;2.67;;;18.70;99.90;;;;;;4951797;29;20027;-51
2022/05/15 08:54:33;;;;;;;14.75;3.50;;;18.70;99.50;;;;;;4951419;29;20110;-50
2022/05/15 08:56:59;;;;;;;13.70;3.75;;;19.00;99.90;;;;;;4951649;29;20039;-51
2022/05/15 08:59:37;;;;;;;15.18;3.15;;;19.10;99.90;;;;;;4951671;29;20427;-50
2022/05/15 09:02:03;;;;;;;12.07;3.60;;;19.10;96.70;;;;;;4957324;28;20500;-52
2022/05/15 09:04:30;;;;;;;12.88;2.80;;;18.90;95.60;;;;;;4969859;28;20035;-49
2022/05/15 09:07:13;;;;;;;8.95;2.78;;;18.70;97.20;;;;;;4970765;28;20034;-50
2022/05/15 09:09:57;;;;;;;13.10;3.13;;;18.50;97.30;;;;;;4970739;28;20066;-51
2022/05/15 09:12:25;;;;;;;12.02;3.53;;;18.50;97.90;;;;;;4970137;28;20029;-51
2022/05/15 09:15:23;;;;;;;13.35;3.13;;;18.60;99.50;;;;;;4970564;28;20030;-49
2022/05/15 09:18:02;;;;;;;210.07;15.38;;;19.00;99.90;;;;;;4955228;28;20046;-51
2022/05/15 09:20:46;;;;;;;12.90;3.00;;;19.10;98.40;;;;;;4970800;28;20517;-52
2022/05/15 09:23:34;;;;;;;9.38;3.00;;;18.90;95.50;;;;;;4970001;28;20027;-52
2022/05/15 09:26:16;;;;;;;12.48;2.42;;;18.60;94.90;;;;;;4970803;28;20109;-50
2022/05/15 09:28:53;;;;;;;8.68;2.50;;;18.70;95.70;;;;;;4970651;28;20035;-52
2022/05/15 09:31:40;;;;;;;11.63;2.65;;;18.70;97.40;;;;;;4970445;28;20493;-51
2022/05/15 09:34:08;;;;;;;9.13;2.40;;;19.10;94.60;;;;;;4970254;28;20033;-51
2022/05/15 09:36:33;;;;;;;16.15;3.28;;;19.20;94.70;;;;;;4970736;28;20068;-52
2022/05/15 09:39:14;;;;;;;11.27;2.88;;;19.10;95.10;;;;;;4969178;28;20089;-51
2022/05/15 09:44:35;;;;;;;13.73;3.13;;;19.70;90.60;;;;;;4970638;28;20041;-52
2022/05/15 09:47:23;;;;;;;9.70;2.92;;;19.80;90.70;;;;;;4970742;28;20047;-51
2022/05/15 09:49:49;;;;;;;12.60;3.10;;;19.60;90.70;;;;;;4970523;28;20482;-52
2022/05/15 09:52:23;;;;;;;12.55;3.53;;;19.50;90.40;;;;;;4970464;28;20046;-51
2022/05/15 09:54:50;;;;;;;10.18;2.60;;;19.40;91.20;;;;;;4970354;28;20114;-50
2022/05/15 09:57:28;;;;;;;12.88;2.35;;;19.60;84.70;;;;;;4970458;28;20034;-50
2022/05/15 09:59:59;;;;;;;10.02;2.50;;;19.70;84.40;;;;;;4970556;28;20120;-50
2022/05/15 10:02:37;;;;;;;12.20;2.78;;;20.00;78.20;;;;;;4969829;28;20023;-51
2022/05/15 10:05:21;;;;;;;11.30;2.58;;;19.90;79.10;;;;;;4970385;28;20239;-49
2022/05/15 10:08:01;;;;;;;11.10;3.08;;;20.30;82.40;;;;;;4970197;28;20031;-51
2022/05/15 10:10:34;;;;;;;8.38;3.00;;;20.80;85.00;;;;;;4970413;28;20038;-50
2022/05/15 10:13:34;;;;;;;7.38;1.92;;;20.50;74.60;;;;;;4970144;28;20014;-52
2022/05/15 10:16:17;;;;;;;10.93;2.88;;;20.20;76.70;;;;;;4969981;28;20030;-51
2022/05/15 10:18:56;;;;;;;12.02;3.20;;;20.30;76.40;;;;;;4958289;28;20489;-49
2022/05/15 10:21:27;;;;;;;14.45;3.03;;;20.10;78.00;;;;;;4973920;28;20030;-51
2022/05/15 10:24:03;;;;;;;12.48;2.92;;;20.50;77.20;;;;;;4973844;28;20031;-51
2022/05/15 10:26:42;;;;;;;10.35;2.25;;;20.80;79.40;;;;;;4973569;28;20014;-50
2022/05/15 10:29:30;;;;;;;11.88;2.70;;;20.50;77.70;;;;;;4974111;28;20121;-52
2022/05/15 10:32:07;;;;;;;11.82;3.25;;;20.20;77.30;;;;;;4973779;28;20069;-52
2022/05/15 10:34:32;;;;;;;11.67;3.27;;;20.10;79.80;;;;;;4973697;28;20552;-52
2022/05/15 10:37:01;;;;;;;8.65;2.22;;;20.00;77.30;;;;;;4973900;28;20043;-51
2022/05/15 10:39:49;;;;;;;9.75;2.55;;;20.20;76.70;;;;;;4973634;28;20050;-52
2022/05/15 10:42:25;;;;;;;;;;;20.60;76.10;;;;;;4973938;28;20026;-51
2022/05/15 10:45:09;;;;;;;9.30;3.40;;;20.30;74.80;;;;;;4973022;28;19906;-50
2022/05/15 10:47:56;;;;;;;13.10;2.60;;;20.70;75.40;;;;;;4973664;28;20039;-52
2022/05/15 10:50:33;;;;;;;9.45;2.28;;;20.50;75.30;;;;;;4973273;28;20035;-51
2022/05/15 10:59:19;;;;;;;10.93;2.70;;;20.90;74.70;;;;;;4972926;28;20045;-51
2022/05/15 11:02:08;;;;;;;9.75;2.60;;;21.30;70.90;;;;;;4972759;28;20382;-49
2022/05/15 11:04:46;;;;;;;;;;;21.30;69.00;;;;;;4973593;28;20057;-50
2022/05/15 11:07:29;;;;;;;7.80;2.00;;;21.40;67.00;;;;;;4971568;28;20364;-50
2022/05/15 11:10:14;;;;;;;8.52;2.13;;;21.20;65.80;;;;;;4972839;28;20026;-50
2022/05/15 11:13:13;;;;;;;6.60;2.40;;;20.90;65.40;;;;;;4972921;28;20655;-51
2022/05/15 11:15:53;;;;;;;4.17;1.60;;;21.40;68.80;;;;;;4941670;28;20047;-51
2022/05/15 11:18:22;;;;;;;6.53;1.95;;;21.10;68.70;;;;;;4972886;28;20378;-50
2022/05/15 11:20:54;;;;;;;7.60;2.42;;;21.40;69.40;;;;;;4971410;28;20082;-50
2022/05/15 11:23:25;;;;;;;5.38;1.40;;;21.60;69.50;;;;;;4972701;28;20031;-50
2022/05/15 11:26:08;;;;;;;16.38;2.47;;;21.80;67.80;;;;;;4955322;28;20030;-50
2022/05/15 11:28:43;;;;;;;6.60;1.83;;;21.80;67.70;;;;;;4972371;28;20030;-51
2022/05/15 11:31:14;;;;;;;6.53;2.33;;;22.20;65.70;;;;;;4972646;28;20030;-50
2022/05/15 11:33:56;;;;;;;16.10;2.30;;;22.50;68.80;;;;;;4972086;28;20030;-51
2022/05/15 11:36:22;;;;;;;12.38;2.30;;;22.20;65.80;;;;;;4972534;28;20073;-50
2022/05/15 11:39:06;;;;;;;9.05;1.77;;;22.50;67.20;;;;;;4970950;28;20470;-51
2022/05/15 11:41:35;;;;;;;5.65;1.65;;;22.70;60.30;;;;;;4972904;28;20030;-51
2022/05/15 11:44:05;;;;;;;7.50;1.80;;;21.70;58.50;;;;;;4972725;28;20101;-51
2022/05/15 11:46:46;;;;;;;6.47;2.30;;;21.80;61.10;;;;;;4971918;28;20125;-52
2022/05/15 11:49:37;;;;;;;10.50;1.90;;;22.30;59.30;;;;;;4972220;28;20031;-52
2022/05/15 11:52:12;;;;;;;6.70;2.00;;;21.60;58.10;;;;;;4972226;28;20023;-53
2022/05/15 11:54:43;;;;;;;7.82;1.85;;;21.80;60.90;;;;;;4972325;28;20117;-52
2022/05/15 11:57:30;;;;;;;9.85;1.75;;;22.10;59.50;;;;;;4971978;28;20035;-51
2022/05/15 11:59:59;;;;;;;6.75;2.03;;;22.30;59.20;;;;;;4972198;28;20030;-51
2022/05/15 12:02:30;;;;;;;4.82;1.73;;;22.70;58.60;;;;;;4971790;28;20110;-52
2022/05/15 12:05:00;;;;;;;6.00;2.35;;;22.60;56.30;;;;;;4972169;28;20090;-52
2022/05/15 12:07:31;;;;;;;6.40;1.88;;;21.90;58.00;;;;;;4971929;28;20022;-53
2022/05/15 12:09:56;;;;;;;6.45;2.08;;;21.30;60.20;;;;;;4972047;28;20483;-52
2022/05/15 12:12:30;;;;;;;6.63;1.60;;;22.40;62.70;;;;;;4967684;28;20051;-53
2022/05/15 12:15:04;;;;;;;9.85;1.50;;;22.40;58.70;;;;;;4952604;29;20142;-53
2022/05/15 12:17:34;;;;;;;3.38;1.52;;;22.60;60.60;;;;;;4952093;29;20131;-51
2022/05/15 12:20:17;;;;;;;7.88;2.05;;;22.80;59.20;;;;;;4952655;29;20027;-53
2022/05/15 12:22:59;;;;;;;6.32;1.77;;;22.90;56.90;;;;;;4952070;29;20630;-52
2022/05/15 12:25:41;;;;;;;9.35;3.17;;;22.80;57.40;;;;;;4952352;29;20034;-53
2022/05/15 12:31:06;;;;;;;7.85;2.00;;;22.90;58.00;;;;;;4952559;29;20043;-51
2022/05/15 12:33:34;;;;;;;7.90;1.83;;;23.20;56.90;;;;;;4951695;29;20159;-51
2022/05/15 12:36:09;;;;;;;11.93;1.95;;;23.20;55.60;;;;;;4952489;29;20039;-51
2022/05/15 12:38:35;;;;;;;4.05;1.80;;;23.40;57.30;;;;;;4951689;28;20440;-52
2022/05/15 12:41:11;;;;;;;6.10;1.75;;;23.80;56.20;;;;;;4951726;29;20031;-52
2022/05/15 12:43:44;;;;;;;6.22;1.40;;;24.00;56.80;;;;;;4952377;29;20031;-52
2022/05/15 12:46:35;;;;;;;5.88;1.33;;;24.00;53.30;;;;;;4951744;29;20054;-52
2022/05/15 12:49:01;;;;;;;4.80;2.00;;;24.00;54.40;;;;;;4952015;29;20030;-51
2022/05/15 12:51:35;;;;;;;4.15;1.70;;;24.40;54.10;;;;;;4952312;29;20027;-52
2022/05/15 12:54:04;;;;;;;3.88;1.30;;;24.40;52.90;;;;;;4951605;29;20031;-51
2022/05/15 12:56:35;;;;;;;4.63;1.35;;;24.20;53.50;;;;;;4952303;29;20051;-51
2022/05/15 12:59:12;;;;;;;7.70;2.30;;;23.80;52.20;;;;;;4951748;29;20398;-51
2022/05/15 13:01:37;;;;;;;6.70;1.95;;;23.60;53.40;;;;;;4952001;29;20027;-50
2022/05/15 13:04:14;;;;;;;5.80;1.60;;;23.60;54.10;;;;;;4969611;28;20026;-51
2022/05/15 13:06:49;;;;;;;5.28;1.90;;;23.30;52.40;;;;;;4952251;28;20031;-52
2022/05/15 13:09:21;;;;;;;10.00;2.50;;;23.00;55.50;;;;;;4932410;29;20498;-51
2022/05/15 13:11:50;;;;;;;6.90;1.83;;;22.90;53.60;;;;;;4931977;29;20475;-52